»·PEaware :: SWA111 KRNO-KSAN

SWA111 :: KRNO-KSAN

FLIGHT INFORMATION

Flight Status: Arrived
Operator:
Southwest Airlines
More flights by this operator :: More flights under this callsign
Pilot: Steve F. (26981)
Aircraft: BOEING 737-800
(B738)
More flights by this aircraft type
Origin: KRNO Reno/Tahoe Intl
United States
Destination: KSAN San Diego Intl-Lindbergh
United States
More flights between these airports :: More routes between these airports
Route: +PVINE3 CRDDZ DARBI HUULK COMIX2
File this flight plan on PilotEdge
Remarks:
Altitude:
(Current/Filed)
39,000ft
Speed:
(Current/Filed)
430kts
Departed: 09-Feb-20 01:19 PM
Arrived: 09-Feb-20 02:34 PM
Distance/Time
Traveled:
425nm/1:15
Distance/Time
To Go:
Arrived

Flight Plot

Page will automatically refresh every two minutes.

Flight plan parsing failed; only flown route is shown


Map Options




Map Legend


Flown Route
Filed Route
Departure Airport
Arrival Airport
Navaid (VOR, NDB)
Fix

Horizontal Profiles

Position Reports

Time Latitude Longitude Heading Altitude Ground
Speed
09-Feb-20 12:58 39.505095 -119.772844 358 4423ft 0kts
09-Feb-20 12:59 39.505095 -119.772844 358 4423ft 0kts
09-Feb-20 13:00 39.505095 -119.772844 358 4423ft 0kts
09-Feb-20 13:01 39.505095 -119.772844 358 4423ft 0kts
09-Feb-20 13:02 39.505095 -119.772844 358 4423ft 0kts
09-Feb-20 13:03 39.505095 -119.772844 358 4423ft 0kts
09-Feb-20 13:04 39.505095 -119.772844 358 4423ft 0kts
09-Feb-20 13:05 39.505095 -119.772844 358 4423ft 0kts
09-Feb-20 13:06 39.505082 -119.772844 358 4423ft 1kts
09-Feb-20 13:07 39.504486 -119.773202 52 4423ft 0kts
09-Feb-20 13:08 39.504487 -119.773200 52 4423ft 0kts
09-Feb-20 13:09 39.504488 -119.773199 52 4423ft 0kts
09-Feb-20 13:10 39.504381 -119.772397 93 4423ft 7kts
09-Feb-20 13:11 39.500939 -119.771601 179 4423ft 24kts
09-Feb-20 13:12 39.493307 -119.771626 179 4423ft 0kts
09-Feb-20 13:13 39.493305 -119.771626 179 4423ft 0kts
09-Feb-20 13:14 39.493304 -119.771626 179 4423ft 0kts
09-Feb-20 13:15 39.489437 -119.771557 186 4423ft 31kts
09-Feb-20 13:16 39.483820 -119.771356 101 4423ft 1kts
09-Feb-20 13:17 39.483791 -119.770218 90 4423ft 6kts
09-Feb-20 13:18 39.495296 -119.769276 0 4423ft 135kts
09-Feb-20 13:19 39.547046 -119.768781 4 6894ft 211kts
09-Feb-20 13:20 39.611276 -119.791464 311 9312ft 285kts
09-Feb-20 13:21 39.646326 -119.889837 303 12482ft 310kts
09-Feb-20 13:22 39.625369 -120.001967 221 15382ft 371kts
09-Feb-20 13:23 39.527088 -120.024972 161 17789ft 369kts
09-Feb-20 13:24 39.424098 -120.000571 158 20375ft 385kts
09-Feb-20 13:25 39.317650 -119.974768 159 22858ft 398kts
09-Feb-20 13:26 39.206724 -119.948001 161 25076ft 412kts
09-Feb-20 13:27 39.089831 -119.919732 163 26259ft 450kts
09-Feb-20 13:28 38.960130 -119.888579 164 26862ft 493kts
09-Feb-20 13:29 38.823440 -119.855892 165 28202ft 507kts
09-Feb-20 13:30 38.682862 -119.822400 166 29382ft 520kts
09-Feb-20 13:31 38.538839 -119.788137 166 30749ft 524kts
09-Feb-20 13:32 38.398629 -119.754993 168 32965ft 502kts
09-Feb-20 13:33 38.263904 -119.721737 166 34518ft 490kts
09-Feb-20 13:34 38.131287 -119.678694 166 35344ft 493kts
09-Feb-20 13:35 37.997642 -119.635952 167 36145ft 495kts
09-Feb-20 13:36 37.863967 -119.593429 167 36899ft 497kts
09-Feb-20 13:37 37.729809 -119.551018 168 37615ft 498kts
09-Feb-20 13:38 37.595076 -119.508679 168 38294ft 499kts
09-Feb-20 13:39 37.459800 -119.466318 168 38962ft 500kts
09-Feb-20 13:40 37.324672 -119.424157 168 39023ft 499kts
09-Feb-20 13:41 37.190029 -119.382329 168 39011ft 499kts
09-Feb-20 13:42 37.055424 -119.340645 168 39004ft 498kts
09-Feb-20 13:43 36.921116 -119.299211 168 39000ft 498kts
09-Feb-20 13:44 36.786313 -119.257779 168 38998ft 497kts
09-Feb-20 13:45 36.652119 -119.216689 168 38990ft 497kts
09-Feb-20 13:46 36.517709 -119.175693 168 38987ft 497kts
09-Feb-20 13:47 36.383178 -119.134794 168 38985ft 497kts
09-Feb-20 13:48 36.249111 -119.094176 169 38984ft 496kts
09-Feb-20 13:49 36.115401 -119.053782 169 38988ft 496kts
09-Feb-20 13:50 35.981262 -119.013414 169 38989ft 494kts
09-Feb-20 13:51 35.848493 -118.973609 169 38983ft 491kts
09-Feb-20 13:52 35.715421 -118.933854 169 38966ft 490kts
09-Feb-20 13:53 35.583124 -118.894462 169 38949ft 490kts
09-Feb-20 13:54 35.450898 -118.855229 169 38947ft 489kts
09-Feb-20 13:55 35.318362 -118.816027 170 38938ft 488kts
09-Feb-20 13:56 35.186333 -118.777120 170 38926ft 487kts
09-Feb-20 13:57 35.054554 -118.738397 170 38907ft 487kts
09-Feb-20 13:58 34.922887 -118.699840 170 38890ft 486kts
09-Feb-20 13:59 34.791502 -118.661422 170 38874ft 485kts
09-Feb-20 14:00 34.660446 -118.623336 171 38872ft 484kts
09-Feb-20 14:01 34.534266 -118.563183 153 38167ft 500kts
09-Feb-20 14:02 34.414544 -118.477713 153 35371ft 498kts
09-Feb-20 14:03 34.294358 -118.392368 153 32577ft 501kts
09-Feb-20 14:04 34.176518 -118.308550 156 29781ft 481kts
09-Feb-20 14:05 34.063226 -118.228508 158 26992ft 461kts
09-Feb-20 14:06 33.955485 -118.152758 159 24576ft 434kts
09-Feb-20 14:07 33.853614 -118.081359 159 22174ft 414kts
09-Feb-20 14:08 33.755242 -118.015744 160 20006ft 402kts
09-Feb-20 14:09 33.659059 -117.952325 160 18248ft 387kts
09-Feb-20 14:10 33.565412 -117.890611 159 17243ft 382kts
09-Feb-20 14:11 33.472819 -117.827937 158 16449ft 380kts
09-Feb-20 14:12 33.387891 -117.750130 144 15886ft 385kts
09-Feb-20 14:13 33.313264 -117.669682 145 15436ft 339kts
09-Feb-20 14:14 33.245811 -117.597472 145 14984ft 321kts
09-Feb-20 14:15 33.179249 -117.527707 145 13770ft 316kts
09-Feb-20 14:16 33.111792 -117.461356 151 12466ft 308kts
09-Feb-20 14:17 33.042447 -117.404594 149 11236ft 296kts
09-Feb-20 14:18 32.976725 -117.349460 148 10132ft 282kts
09-Feb-20 14:19 32.913961 -117.296949 148 9029ft 269kts
09-Feb-20 14:20 32.878291 -117.225934 93 7925ft 266kts
09-Feb-20 14:21 32.885356 -117.140099 82 6823ft 256kts
09-Feb-20 14:22 32.894841 -117.057565 82 5973ft 243kts
09-Feb-20 14:23 32.903647 -116.979688 83 5978ft 235kts
09-Feb-20 14:24 32.871318 -116.914580 132 5961ft 237kts
09-Feb-20 14:25 32.813839 -116.880288 181 4974ft 227kts
09-Feb-20 14:26 32.757844 -116.891232 192 4410ft 176kts
09-Feb-20 14:28 32.706297 -116.905369 218 4063ft 202kts
09-Feb-20 14:29 32.686943 -116.960299 252 3205ft 167kts
09-Feb-20 14:30 32.691199 -117.015542 284 2960ft 173kts
09-Feb-20 14:31 32.705298 -117.072316 285 2248ft 179kts
09-Feb-20 14:32 32.717961 -117.124278 281 1095ft 158kts
09-Feb-20 14:33 32.730099 -117.175440 282 131ft 162kts
09-Feb-20 14:34 32.736222 -117.202175 214 23ft 8kts
09-Feb-20 14:35 32.735216 -117.200675 106 23ft 18kts
09-Feb-20 14:36 32.733320 -117.195609 194 23ft 4kts
09-Feb-20 14:37 32.733070 -117.195869 226 23ft 0kts
09-Feb-20 14:38 32.733070 -117.195869 226 23ft 0kts

Navigation Log

Ident Type
Flight plan parsing failed, navigation log unavailable